Time;durP1;ratioP1;P1;durP2;ratioP2;P2;SDS_P1;SDS_P2;PMS_P1;PMS_P2;Temp;Humidity;BMP_temperature;BMP_pressure;BME280_temperature;BME280_humidity;BME280_pressure;Samples;Min_cycle;Max_cycle;Signal;HPM_P1;HPM_P2
2023/01/20 00:01:11;;;;;;;5.30;1.85;;;;;;;0.40;75.29;99751.78;5053759;28;19920;-50
2023/01/20 00:03:41;;;;;;;4.47;1.70;;;;;;;0.38;75.74;99754.28;5053795;28;20711;-50
2023/01/20 00:06:08;;;;;;;5.45;1.65;;;;;;;0.38;75.74;99755.13;5042482;28;20126;-51
2023/01/20 00:08:35;;;;;;;4.30;1.33;;;;;;;0.39;75.55;99761.09;5054059;28;20056;-52
2023/01/20 00:11:07;;;;;;;7.63;1.95;;;;;;;0.40;75.90;99772.16;5046031;28;20041;-50
2023/01/20 00:13:35;;;;;;;7.60;1.75;;;;;;;0.40;75.63;99767.91;5054639;28;21120;-49
2023/01/20 00:16:03;;;;;;;6.35;1.95;;;;;;;0.40;75.36;99773.03;5051445;28;20122;-50
2023/01/20 00:18:30;;;;;;;7.18;0.80;;;;;;;0.42;75.85;99779.06;5052060;28;20049;-49
2023/01/20 00:21:02;;;;;;;2.55;0.93;;;;;;;0.42;75.75;99786.69;5054283;28;20081;-49
2023/01/20 00:23:28;;;;;;;6.15;1.27;;;;;;;0.41;75.88;99779.88;5050010;28;20045;-49
2023/01/20 00:25:55;;;;;;;5.10;0.80;;;;;;;0.42;75.65;99786.69;5051300;28;20052;-50
2023/01/20 00:28:22;;;;;;;5.28;0.98;;;;;;;0.43;74.88;99785.00;5052129;28;20133;-52
2023/01/20 00:30:48;;;;;;;6.07;1.15;;;;;;;0.43;75.56;99792.63;5052094;28;20569;-49
2023/01/20 00:33:15;;;;;;;9.75;1.00;;;;;;;0.42;74.90;99786.69;5050681;28;20048;-49
2023/01/20 00:35:42;;;;;;;2.03;1.27;;;;;;;0.44;74.79;99789.28;5037655;28;20048;-52
2023/01/20 00:38:09;;;;;;;2.75;1.40;;;;;;;0.45;75.49;99793.56;5040149;28;20076;-49
2023/01/20 00:40:36;;;;;;;2.97;1.20;;;;;;;0.46;75.77;99788.53;5033211;28;20099;-52
2023/01/20 00:43:02;;;;;;;4.35;2.42;;;;;;;0.49;75.40;99788.63;5031484;28;20068;-51
2023/01/20 00:45:29;;;;;;;4.85;1.77;;;;;;;0.56;76.33;99793.94;5032820;28;20061;-51
2023/01/20 00:47:55;;;;;;;5.15;0.93;;;;;;;0.60;75.75;99800.84;5036411;28;20068;-50
2023/01/20 00:50:22;;;;;;;6.13;1.75;;;;;;;0.64;75.06;99803.56;5029635;28;20149;-52
2023/01/20 00:52:49;;;;;;;5.35;1.10;;;;;;;0.67;75.15;99812.16;5033546;28;20052;-50
2023/01/20 00:55:15;;;;;;;6.03;1.23;;;;;;;0.68;75.10;99809.66;5036539;28;20425;-53
2023/01/20 00:57:42;;;;;;;6.32;1.20;;;;;;;0.69;75.02;99805.41;5032841;28;20138;-54
2023/01/20 01:00:09;;;;;;;5.40;1.15;;;;;;;0.67;75.01;99810.44;5037552;28;20144;-52
2023/01/20 01:02:37;;;;;;;8.20;1.20;;;;;;;0.65;75.12;99812.09;5036517;28;20037;-51
2023/01/20 01:05:05;;;;;;;3.38;0.70;;;;;;;0.64;74.96;99818.00;5036289;28;20103;-52
2023/01/20 01:07:31;;;;;;;4.90;0.38;;;;;;;0.63;75.48;99823.91;5039881;28;20102;-49
2023/01/20 01:09:58;;;;;;;4.38;1.25;;;;;;;0.61;75.67;99820.47;5040250;28;20126;-50
2023/01/20 01:12:24;;;;;;;6.50;1.13;;;;;;;0.59;75.52;99829.72;5039391;28;20045;-52
2023/01/20 01:14:51;;;;;;;4.10;0.35;;;;;;;0.59;74.96;99839.91;5041158;28;20437;-51
2023/01/20 01:17:18;;;;;;;1.92;0.85;;;;;;;0.59;75.04;99839.91;5036620;28;20053;-51
2023/01/20 01:19:45;;;;;;;3.22;0.70;;;;;;;0.61;75.74;99838.31;5038476;28;20519;-50
2023/01/20 01:22:13;;;;;;;2.55;0.82;;;;;;;0.65;75.46;99829.94;5035447;28;20696;-50
2023/01/20 01:24:43;;;;;;;4.72;0.70;;;;;;;0.69;76.06;99831.78;5032156;28;20060;-52
2023/01/20 01:27:11;;;;;;;3.20;0.85;;;;;;;0.74;75.17;99840.44;5044941;28;20049;-50
2023/01/20 01:29:40;;;;;;;3.78;1.48;;;;;;;0.77;76.36;99850.75;5031393;28;20049;-50
2023/01/20 01:32:08;;;;;;;5.40;1.02;;;;;;;0.79;75.72;99843.16;5027248;28;20068;-49
2023/01/20 01:34:36;;;;;;;1.50;0.52;;;;;;;0.80;75.97;99849.09;5035402;28;20051;-48
2023/01/20 01:37:04;;;;;;;7.53;0.60;;;;;;;0.83;75.10;99854.31;5035677;28;20056;-49
2023/01/20 01:39:32;;;;;;;3.92;0.50;;;;;;;0.86;75.61;99852.75;5037697;28;20052;-51
2023/01/20 01:42:01;;;;;;;3.00;0.22;;;;;;;0.91;75.46;99857.97;5038085;28;20048;-50
2023/01/20 01:44:31;;;;;;;3.72;0.88;;;;;;;0.96;75.61;99860.69;5038535;28;21134;-52
2023/01/20 01:47:01;;;;;;;5.53;0.73;;;;;;;1.00;75.80;99863.41;5037170;28;20103;-54
2023/01/20 01:49:31;;;;;;;2.92;0.40;;;;;;;1.04;75.73;99863.50;5037458;28;20047;-50
2023/01/20 01:52:07;;;;;;;1.85;0.63;;;;;;;1.05;75.51;99867.78;5038799;28;20041;-52
2023/01/20 01:54:37;;;;;;;7.13;0.80;;;;;;;1.05;75.51;99871.22;5031075;28;20378;-53
2023/01/20 01:57:06;;;;;;;2.72;0.85;;;;;;;1.06;74.93;99872.06;5039596;28;20078;-48
2023/01/20 01:59:33;;;;;;;5.07;0.57;;;;;;;1.08;75.83;99875.56;5042045;28;20136;-49
2023/01/20 02:02:00;;;;;;;4.70;0.95;;;;;;;1.08;75.74;99883.22;5037298;28;20755;-51
2023/01/20 02:04:27;;;;;;;3.13;0.50;;;;;;;1.08;75.21;99885.75;5038362;28;20049;-52
2023/01/20 02:06:59;;;;;;;3.72;0.52;;;;;;;1.08;75.94;99893.41;5039240;28;20147;-50
2023/01/20 02:09:28;;;;;;;2.92;0.82;;;;;;;1.07;75.32;99896.75;5038169;28;20077;-49
2023/01/20 02:12:00;;;;;;;8.57;1.00;;;;;;;1.06;75.82;99895.03;5035565;28;20041;-49
2023/01/20 02:14:35;;;;;;;1.70;0.70;;;;;;;1.02;76.06;99902.56;5035136;28;20136;-51
2023/01/20 02:37:15;;;;;;;3.03;0.40;;;;;;;1.10;75.92;99920.69;5077695;27;20510;-51
2023/01/20 02:40:11;;;;;;;2.90;0.95;;;;;;;1.06;76.42;99928.19;4991767;28;20054;-50
2023/01/20 02:42:44;;;;;;;3.72;0.95;;;;;;;1.06;76.75;99926.50;5005048;28;20096;-50
2023/01/20 02:45:20;;;;;;;4.03;0.70;;;;;;;1.08;75.44;99932.53;4996770;28;20091;-50
2023/01/20 02:51:00;;;;;;;0.90;0.35;;;;;;;1.15;76.19;99938.72;5103040;27;20407;-52
2023/01/20 02:53:35;;;;;;;2.10;0.60;;;;;;;1.17;75.86;99934.53;5021774;28;20049;-50
2023/01/20 02:56:03;;;;;;;4.70;0.40;;;;;;;1.20;76.59;99937.19;5011017;28;20050;-50
2023/01/20 02:58:54;;;;;;;2.15;0.50;;;;;;;1.18;76.44;99938.81;5034625;28;20053;-51
2023/01/20 03:01:27;;;;;;;4.93;0.70;;;;;;;1.19;75.91;99940.56;5014547;28;20091;-52
2023/01/20 03:03:58;;;;;;;1.63;0.75;;;;;;;1.16;76.56;99935.34;5036120;28;20100;-52
2023/01/20 03:06:31;;;;;;;1.17;0.82;;;;;;;1.14;75.58;99937.84;5036787;28;20057;-51
2023/01/20 03:09:01;;;;;;;3.13;0.95;;;;;;;1.12;76.18;99938.63;5037880;28;20081;-52
2023/01/20 03:11:30;;;;;;;1.20;0.80;;;;;;;1.11;75.42;99942.84;5036134;28;20131;-49
2023/01/20 03:14:03;;;;;;;2.35;1.23;;;;;;;1.11;76.26;99949.59;5037082;28;20758;-52
2023/01/20 03:16:30;;;;;;;1.92;0.55;;;;;;;1.09;75.80;99958.91;5030473;28;20908;-51
2023/01/20 03:18:57;;;;;;;4.82;0.88;;;;;;;1.09;76.47;99953.81;5037197;28;20041;-50
2023/01/20 03:21:23;;;;;;;3.17;0.70;;;;;;;1.10;75.41;99958.09;5037046;28;20061;-48
2023/01/20 03:23:53;;;;;;;1.77;0.35;;;;;;;1.11;75.95;99957.25;5031962;28;20106;-53
2023/01/20 03:26:21;;;;;;;6.18;1.27;;;;;;;1.12;75.98;99959.03;5030514;28;20045;-52
2023/01/20 03:28:48;;;;;;;1.70;0.77;;;;;;;1.12;75.76;99953.91;5019264;28;20073;-51
2023/01/20 03:34:09;;;;;;;4.45;0.55;;;;;;;1.26;75.51;99956.94;5090304;27;21119;-52
2023/01/20 03:36:37;;;;;;;3.20;2.00;;;;;;;1.28;76.28;99951.06;5032419;28;20049;-52
2023/01/20 03:39:05;;;;;;;4.07;2.22;;;;;;;1.32;75.88;99958.81;5036538;28;20041;-49
2023/01/20 03:50:51;;;;;;;4.78;1.67;;;;;;;1.33;75.69;99958.00;5062166;27;20410;-49
2023/01/20 03:53:44;;;;;;;4.45;1.70;;;;;;;1.26;76.00;99968.03;5030929;28;20045;-50
2023/01/20 03:59:08;;;;;;;2.72;0.80;;;;;;;1.27;76.42;99973.97;5059661;27;20414;-49
2023/01/20 04:01:40;;;;;;;11.93;0.80;;;;;;;1.27;76.95;99969.75;5010410;28;20069;-51
2023/01/20 04:04:13;;;;;;;5.25;0.68;;;;;;;1.25;75.80;99966.25;5017932;28;20099;-51
2023/01/20 04:06:42;;;;;;;4.65;0.70;;;;;;;1.24;76.82;99964.53;5018242;28;20509;-50
2023/01/20 04:09:15;;;;;;;1.77;0.40;;;;;;;1.25;76.39;99966.25;5057857;28;20055;-49
2023/01/20 04:11:42;;;;;;;2.15;0.60;;;;;;;1.23;76.75;99967.91;5058279;28;20153;-49
2023/01/20 04:14:08;;;;;;;3.08;0.32;;;;;;;1.21;77.30;99963.56;5048781;28;20071;-50
2023/01/20 04:16:36;;;;;;;2.60;0.25;;;;;;;1.15;76.96;99969.34;5060236;28;20071;-50
2023/01/20 04:19:03;;;;;;;3.75;0.52;;;;;;;1.11;76.86;99967.47;5056236;28;20057;-49
2023/01/20 04:27:13;;;;;;;3.85;0.88;;;;;;;1.02;77.12;99975.69;5102546;27;20413;-52
2023/01/20 04:29:40;;;;;;;0.95;0.60;;;;;;;0.89;77.33;99982.91;5026137;28;20069;-49
2023/01/20 04:32:08;;;;;;;1.55;0.73;;;;;;;0.84;77.65;99984.41;5021644;28;20112;-52
2023/01/20 04:34:35;;;;;;;0.70;0.32;;;;;;;0.86;78.59;99980.25;5015364;28;20057;-50
2023/01/20 04:37:02;;;;;;;2.88;0.55;;;;;;;0.85;78.00;99981.03;5019140;28;20053;-52
2023/01/20 04:39:28;;;;;;;0.90;0.63;;;;;;;0.76;78.99;99986.72;5018720;28;20041;-48
2023/01/20 04:41:55;;;;;;;1.00;0.52;;;;;;;0.81;79.97;99983.44;5021162;28;20172;-49
2023/01/20 04:44:21;;;;;;;3.85;0.73;;;;;;;0.77;80.22;99980.78;5024764;28;20515;-50
2023/01/20 04:46:48;;;;;;;4.00;0.73;;;;;;;0.77;80.32;99978.25;5023169;28;20049;-50
2023/01/20 04:49:15;;;;;;;0.95;0.30;;;;;;;0.75;80.51;99984.94;5021325;28;20099;-50
2023/01/20 04:51:41;;;;;;;0.55;0.30;;;;;;;0.80;80.47;99986.78;5029429;28;20071;-50
2023/01/20 04:54:08;;;;;;;1.10;0.40;;;;;;;0.78;80.13;99994.41;5016495;28;20061;-50
2023/01/20 04:56:34;;;;;;;0.73;0.25;;;;;;;0.79;80.67;99993.59;5020374;28;20080;-48
2023/01/20 04:59:01;;;;;;;3.60;0.43;;;;;;;0.86;80.16;99993.00;5017608;28;20045;-49
2023/01/20 05:01:27;;;;;;;10.57;1.15;;;;;;;0.92;79.67;99997.47;5019010;28;20045;-50
2023/01/20 05:03:54;;;;;;;0.98;0.52;;;;;;;0.94;80.25;99990.72;5018776;28;20540;-48
2023/01/20 05:06:21;;;;;;;2.72;0.60;;;;;;;0.92;80.59;100005.09;5016736;28;20143;-49
2023/01/20 05:08:47;;;;;;;0.30;0.30;;;;;;;0.93;80.66;100009.38;5019770;28;20139;-53
2023/01/20 05:11:14;;;;;;;2.28;0.70;;;;;;;0.98;79.20;100012.97;5016725;28;20042;-48
2023/01/20 05:13:40;;;;;;;7.65;0.95;;;;;;;0.99;79.26;100013.84;5013620;28;20141;-51
2023/01/20 05:16:08;;;;;;;3.05;1.15;;;;;;;0.97;79.10;100010.34;5018493;28;20069;-49
2023/01/20 05:18:35;;;;;;;0.60;0.32;;;;;;;0.94;79.97;100023.88;5018230;28;20049;-50
2023/01/20 05:21:03;;;;;;;3.47;0.80;;;;;;;1.00;79.13;100025.78;5019205;28;20079;-51
2023/01/20 05:23:30;;;;;;;1.38;0.47;;;;;;;0.97;79.40;100025.66;4997956;28;20116;-52
2023/01/20 05:25:56;;;;;;;1.45;0.63;;;;;;;0.94;79.70;100026.41;5008247;28;20061;-48
2023/01/20 05:28:23;;;;;;;7.22;0.35;;;;;;;0.94;78.76;100031.53;5015405;28;20096;-51
2023/01/20 05:30:50;;;;;;;2.92;0.65;;;;;;;0.94;79.51;100028.97;5013386;28;20054;-53
2023/01/20 05:33:17;;;;;;;2.08;0.43;;;;;;;0.90;78.42;100029.66;4999162;28;20761;-52
2023/01/20 05:35:44;;;;;;;0.65;0.40;;;;;;;0.90;79.15;100034.78;5018568;28;20478;-51
2023/01/20 05:38:11;;;;;;;1.17;0.73;;;;;;;0.84;78.61;100035.41;5005227;28;20131;-52
2023/01/20 05:40:37;;;;;;;4.43;1.38;;;;;;;0.81;78.67;100037.00;5002445;28;20082;-53
2023/01/20 05:43:04;;;;;;;0.95;0.30;;;;;;;0.74;78.78;100034.22;5007510;28;20413;-49
2023/01/20 05:45:31;;;;;;;7.97;0.63;;;;;;;0.76;79.49;100036.81;4998299;28;20112;-51
2023/01/20 05:47:59;;;;;;;0.60;0.32;;;;;;;0.75;78.48;100042.75;5000676;28;20050;-50
2023/01/20 05:50:27;;;;;;;4.53;1.33;;;;;;;0.75;78.68;100041.03;4986660;28;20112;-52
2023/01/20 05:52:54;;;;;;;5.50;0.88;;;;;;;0.76;79.33;100047.91;4994648;28;20490;-51
2023/01/20 05:55:20;;;;;;;2.50;0.95;;;;;;;0.75;79.31;100051.25;4999964;28;20045;-51
2023/01/20 05:57:47;;;;;;;3.90;0.63;;;;;;;0.74;78.78;100052.06;5003310;28;20078;-49
2023/01/20 06:00:14;;;;;;;9.10;1.02;;;;;;;0.71;78.33;100054.50;5003165;28;20081;-48
2023/01/20 06:02:40;;;;;;;2.85;0.40;;;;;;;0.69;77.91;100066.31;5003332;28;20481;-51
2023/01/20 06:05:07;;;;;;;5.15;0.40;;;;;;;0.67;78.85;100067.09;4999489;28;20092;-51
2023/01/20 06:07:34;;;;;;;2.33;0.63;;;;;;;0.64;78.29;100078.00;5000861;28;20383;-47
2023/01/20 06:10:01;;;;;;;4.55;0.40;;;;;;;0.61;78.08;100075.38;5001113;28;20670;-53
2023/01/20 06:12:28;;;;;;;0.80;0.60;;;;;;;0.59;78.80;100079.53;5006738;28;20053;-48
2023/01/20 06:14:54;;;;;;;3.67;0.50;;;;;;;0.57;78.36;100083.72;5004676;28;20787;-48
2023/01/20 06:17:21;;;;;;;7.05;0.70;;;;;;;0.50;78.17;100083.47;5006573;28;20109;-50
2023/01/20 06:19:47;;;;;;;0.25;0.10;;;;;;;0.43;78.18;100078.94;5006420;28;20042;-51
2023/01/20 06:22:14;;;;;;;4.75;0.93;;;;;;;0.40;78.60;100080.50;4997647;28;20057;-50
2023/01/20 06:24:41;;;;;;;3.50;0.43;;;;;;;0.33;78.28;100087.91;5000078;28;20497;-51
2023/01/20 06:27:08;;;;;;;1.55;0.57;;;;;;;0.29;78.43;100085.16;5000852;28;20097;-52
2023/01/20 06:29:35;;;;;;;3.22;0.50;;;;;;;0.27;79.62;100081.69;5010364;28;20042;-50
2023/01/20 06:32:01;;;;;;;6.28;1.30;;;;;;;0.25;79.46;100095.25;5000915;28;20049;-52
2023/01/20 06:34:28;;;;;;;2.20;0.30;;;;;;;0.22;80.00;100090.03;5005371;28;20045;-50
2023/01/20 06:36:56;;;;;;;2.63;0.98;;;;;;;0.23;80.35;100107.03;5003464;28;20058;-51
2023/01/20 06:39:22;;;;;;;2.08;0.73;;;;;;;0.22;80.16;100114.63;5002100;28;20703;-48
2023/01/20 06:41:49;;;;;;;0.98;0.47;;;;;;;0.28;79.49;100114.88;4997985;28;20078;-51
2023/01/20 06:44:16;;;;;;;1.92;0.50;;;;;;;0.32;79.37;100124.38;5008884;28;20092;-52
2023/01/20 06:46:43;;;;;;;1.95;0.32;;;;;;;0.33;80.27;100122.69;4995201;28;20453;-48
2023/01/20 06:49:13;;;;;;;3.13;0.52;;;;;;;0.33;80.22;100125.22;5001839;28;20088;-51
2023/01/20 06:51:40;;;;;;;2.83;0.55;;;;;;;0.37;80.65;100127.97;5003385;28;20046;-49
2023/01/20 06:54:07;;;;;;;4.40;0.70;;;;;;;0.40;79.71;100134.88;5001679;28;20077;-50
2023/01/20 06:56:34;;;;;;;3.78;0.47;;;;;;;0.38;79.93;100136.50;5003013;28;20581;-49
2023/01/20 06:59:00;;;;;;;6.57;0.70;;;;;;;0.40;80.28;100144.22;5007132;28;20127;-52
2023/01/20 07:01:29;;;;;;;0.98;0.73;;;;;;;0.41;80.24;100141.72;4997512;28;20502;-51
2023/01/20 07:03:56;;;;;;;0.77;0.28;;;;;;;0.41;80.23;100140.84;4999119;28;20321;-52
2023/01/20 07:09:13;;;;;;;5.53;1.98;;;;;;;0.82;77.81;100150.94;5100802;27;20444;-52
2023/01/20 07:11:40;;;;;;;5.13;2.00;;;;;;;0.61;79.58;100149.28;5017832;27;20103;-50
2023/01/20 07:14:07;;;;;;;1.85;1.75;;;;;;;0.50;80.74;100151.41;5022449;28;20061;-50
2023/01/20 07:16:34;;;;;;;6.85;1.58;;;;;;;0.54;80.04;100157.50;5017663;28;20080;-48
2023/01/20 07:19:01;;;;;;;1.30;0.68;;;;;;;0.47;80.73;100157.25;5016587;28;20104;-52
2023/01/20 07:21:28;;;;;;;4.30;2.42;;;;;;;0.51;80.34;100159.09;5018339;28;20956;-48
2023/01/20 07:23:54;;;;;;;2.10;0.30;;;;;;;0.55;79.84;100169.44;5009939;28;20580;-49
2023/01/20 07:26:25;;;;;;;7.28;1.75;;;;;;;0.53;80.25;100171.91;5020589;28;20493;-52
2023/01/20 07:28:51;;;;;;;1.88;1.00;;;;;;;0.54;80.50;100177.91;5051054;28;20056;-51
2023/01/20 07:31:21;;;;;;;2.22;2.13;;;;;;;0.55;79.62;100177.06;5015693;28;20103;-49
2023/01/20 07:33:49;;;;;;;1.23;1.13;;;;;;;0.55;81.09;100187.28;5012872;28;20047;-51
2023/01/20 07:36:16;;;;;;;1.48;1.33;;;;;;;0.58;80.57;100189.94;5018176;28;20050;-49
2023/01/20 07:38:51;;;;;;;1.98;1.20;;;;;;;0.54;80.93;100188.09;5048406;28;20046;-52
2023/01/20 07:41:19;;;;;;;2.35;1.42;;;;;;;0.54;80.40;100190.63;5021293;28;20123;-50
2023/01/20 07:43:48;;;;;;;2.78;1.77;;;;;;;0.56;80.66;100194.09;5015985;28;20119;-52
2023/01/20 07:46:15;;;;;;;1.60;1.50;;;;;;;0.54;79.94;100193.19;5020367;28;20073;-48
2023/01/20 07:48:42;;;;;;;5.28;1.50;;;;;;;0.55;80.23;100205.13;5015914;28;20116;-49
2023/01/20 07:51:12;;;;;;;8.07;1.40;;;;;;;0.55;80.64;100211.09;5014682;28;20111;-50
2023/01/20 07:53:45;;;;;;;9.63;2.45;;;;;;;0.56;80.11;100217.94;5015205;28;20155;-53
2023/01/20 07:58:50;;;;;;;3.70;0.75;;;;;;;0.56;79.21;100227.25;5012789;28;20973;-51
2023/01/20 08:04:00;;;;;;;1.80;1.55;;;;;;;0.56;80.13;100242.53;5051313;27;20410;-52
2023/01/20 08:06:28;;;;;;;5.35;0.55;;;;;;;0.56;80.15;100247.63;4993763;28;20500;-49
2023/01/20 08:08:55;;;;;;;1.75;1.58;;;;;;;0.58;79.93;100251.13;4995197;28;20046;-51
2023/01/20 08:11:24;;;;;;;4.82;1.60;;;;;;;0.58;80.02;100251.13;4991284;28;20046;-49
2023/01/20 08:13:51;;;;;;;11.98;2.33;;;;;;;0.59;79.22;100257.97;4989324;28;20051;-49
2023/01/20 08:16:18;;;;;;;5.65;1.45;;;;;;;0.62;80.22;100258.09;4991333;28;20066;-52
2023/01/20 08:18:46;;;;;;;1.52;1.42;;;;;;;0.69;80.28;100270.28;4992995;28;20133;-50
2023/01/20 08:23:58;;;;;;;5.00;2.22;;;;;;;0.97;79.14;100276.50;5059154;27;20403;-50
2023/01/20 08:26:27;;;;;;;3.83;0.85;;;;;;;1.09;78.90;100270.16;5054010;28;20052;-49
2023/01/20 08:28:54;;;;;;;5.80;1.83;;;;;;;1.16;80.17;100277.25;5054744;28;20045;-51
2023/01/20 08:31:23;;;;;;;7.30;1.83;;;;;;;1.31;78.55;100286.31;5055853;28;20044;-50
2023/01/20 08:33:52;;;;;;;6.63;1.73;;;;;;;1.51;79.21;100290.50;5039113;28;20041;-51
2023/01/20 08:36:24;;;;;;;7.03;2.05;;;;;;;1.69;78.10;100291.97;5053567;28;20107;-50
2023/01/20 08:38:51;;;;;;;3.72;1.80;;;;;;;1.88;78.84;100303.78;5037940;28;20060;-50
2023/01/20 08:41:21;;;;;;;10.75;2.40;;;;;;;2.19;78.07;100311.66;5043805;28;20115;-51
2023/01/20 08:43:48;;;;;;;5.05;0.95;;;;;;;2.51;77.31;100317.06;5051150;28;20745;-51
2023/01/20 08:46:17;;;;;;;4.82;2.63;;;;;;;2.83;77.80;100314.72;5061253;28;20083;-48
2023/01/20 08:48:44;;;;;;;4.85;2.08;;;;;;;3.17;76.74;100316.59;5055798;28;20045;-53
2023/01/20 08:51:17;;;;;;;6.28;1.80;;;;;;;3.59;77.39;100318.75;5058073;28;20080;-52
2023/01/20 08:53:43;;;;;;;6.75;2.22;;;;;;;3.95;76.21;100319.81;5056480;28;20044;-52
2023/01/20 08:56:11;;;;;;;6.57;2.55;;;;;;;4.36;76.29;100321.78;5057952;28;20084;-50
2023/01/20 08:58:38;;;;;;;4.82;1.30;;;;;;;4.94;75.95;100319.84;5040813;28;20114;-49
2023/01/20 09:01:09;;;;;;;6.63;2.20;;;;;;;5.56;75.61;100328.97;5035151;28;20072;-49
2023/01/20 09:03:36;;;;;;;7.28;1.50;;;;;;;6.17;73.83;100336.28;5017678;28;20143;-49
2023/01/20 09:06:03;;;;;;;2.55;1.45;;;;;;;6.76;72.90;100330.50;5034652;28;20045;-51
2023/01/20 09:08:30;;;;;;;2.47;0.93;;;;;;;7.28;72.14;100329.63;5031095;28;20072;-50
2023/01/20 09:11:06;;;;;;;2.95;1.35;;;;;;;7.81;71.28;100325.22;5055041;28;20050;-51
2023/01/20 09:13:33;;;;;;;7.38;1.83;;;;;;;8.37;70.51;100333.59;5029182;28;20462;-50
2023/01/20 09:16:00;;;;;;;10.23;1.70;;;;;;;8.89;69.25;100345.34;5027697;28;20124;-52
2023/01/20 09:18:26;;;;;;;8.70;2.78;;;;;;;9.25;68.46;100351.66;5029933;28;20525;-53
2023/01/20 09:20:53;;;;;;;6.97;2.58;;;;;;;9.51;67.31;100348.41;5037269;28;20128;-51
2023/01/20 09:23:20;;;;;;;5.38;2.33;;;;;;;9.70;65.39;100348.53;5025157;28;20077;-53
2023/01/20 09:25:46;;;;;;;12.13;2.85;;;;;;;9.60;63.26;100338.97;5029926;28;20137;-52
2023/01/20 09:28:13;;;;;;;9.35;2.85;;;;;;;9.42;65.30;100350.91;5024308;28;20053;-53
2023/01/20 09:30:41;;;;;;;10.45;2.97;;;;;;;9.58;65.39;100345.84;5027466;28;20053;-52
2023/01/20 09:33:11;;;;;;;5.50;1.80;;;;;;;9.90;65.50;100358.97;5026238;28;20045;-50
2023/01/20 09:35:38;;;;;;;27.92;10.93;;;;;;;10.37;64.92;100353.13;5013248;28;20480;-53
2023/01/20 09:43:57;;;;;;;5.30;3.28;;;;;;;12.22;61.11;100370.34;5027258;28;20407;-50
2023/01/20 09:54:42;;;;;;;6.85;2.55;;;;;;;14.29;55.92;100388.59;5031010;28;20421;-55
2023/01/20 09:57:09;;;;;;;;;;;;;;;14.60;54.84;100380.34;4989614;28;20500;-53
2023/01/20 09:59:46;;;;;;;4.57;2.17;;;;;;;14.92;55.08;100390.38;4996662;28;19984;-54
2023/01/20 10:02:20;;;;;;;5.95;1.83;;;;;;;15.19;53.40;100389.03;4991053;28;20391;-56
2023/01/20 10:04:53;;;;;;;7.10;1.80;;;;;;;15.33;52.08;100401.03;4993376;28;20050;-55
2023/01/20 10:10:24;;;;;;;6.35;3.10;;;;;;;15.54;51.34;100400.63;5037242;28;20634;-54
2023/01/20 10:15:33;;;;;;;6.28;2.25;;;;;;;15.78;50.55;100402.84;5042429;28;20415;-56
2023/01/20 10:20:48;;;;;;;8.52;3.08;;;;;;;16.09;50.42;100397.03;5014539;27;20410;-55
2023/01/20 10:26:00;;;;;;;6.32;2.15;;;;;;;16.28;49.27;100396.66;5030780;27;20405;-54
2023/01/20 10:28:28;;;;;;;8.35;2.33;;;;;;;16.13;47.44;100395.22;4999900;28;20060;-55
2023/01/20 10:30:59;;;;;;;6.05;1.58;;;;;;;15.98;47.64;100399.00;4994124;28;20101;-52
2023/01/20 10:33:33;;;;;;;7.45;2.08;;;;;;;15.86;47.58;100406.16;4997797;28;20073;-55
2023/01/20 10:36:00;;;;;;;6.25;2.17;;;;;;;15.80;48.04;100411.47;5003820;28;20050;-55
2023/01/20 10:38:44;;;;;;;4.28;1.90;;;;;;;15.55;46.43;100406.72;4997196;28;20052;-57
2023/01/20 10:43:48;;;;;;;5.57;2.42;;;;;;;15.40;47.25;100413.91;5041265;27;20399;-57
2023/01/20 10:54:35;;;;;;;8.23;2.25;;;;;;;13.34;46.45;100413.81;5053487;28;20400;-55
2023/01/20 10:57:04;;;;;;;4.93;2.00;;;;;;;12.44;48.50;100417.00;5027572;28;20197;-50
2023/01/20 10:59:40;;;;;;;5.45;1.83;;;;;;;11.64;50.27;100413.72;5031906;28;21401;-54
2023/01/20 11:02:14;;;;;;;;;;;;;;;10.78;50.90;100411.94;5026731;28;20049;-53
2023/01/20 11:04:41;;;;;;;7.00;1.77;;;;;;;10.52;53.03;100420.53;5032944;28;19954;-55
2023/01/20 11:07:14;;;;;;;6.20;2.42;;;;;;;10.17;53.03;100429.00;5033660;28;20049;-51
2023/01/20 11:09:41;;;;;;;9.13;2.45;;;;;;;9.79;54.52;100421.88;5027253;28;20529;-56
2023/01/20 11:12:15;;;;;;;10.18;2.70;;;;;;;9.49;55.32;100430.25;5035106;28;20053;-54
2023/01/20 11:14:44;;;;;;;2.97;1.58;;;;;;;9.20;55.70;100423.16;5032820;28;20057;-56
2023/01/20 11:17:19;;;;;;;6.97;1.55;;;;;;;8.89;56.12;100428.00;5029174;28;20057;-54
2023/01/20 11:22:28;;;;;;;9.00;3.08;;;;;;;8.48;57.51;100432.69;5036896;28;20407;-55
2023/01/20 11:24:57;;;;;;;7.68;3.13;;;;;;;8.27;57.86;100433.28;5018273;28;20466;-52
2023/01/20 11:27:30;;;;;;;6.68;3.50;;;;;;;8.08;57.98;100435.63;5016244;28;20045;-55
2023/01/20 11:30:01;;;;;;;12.07;4.72;;;;;;;8.04;58.19;100440.72;5019376;28;20106;-57
2023/01/20 11:32:32;;;;;;;4.40;2.78;;;;;;;7.91;58.31;100435.38;5015963;28;20085;-53
2023/01/20 11:35:00;;;;;;;6.85;3.05;;;;;;;7.92;59.46;100442.28;5016736;28;20042;-53
2023/01/20 11:37:37;;;;;;;9.95;4.45;;;;;;;7.78;59.46;100444.66;5016191;28;20046;-52
2023/01/20 11:40:25;;;;;;;5.88;2.67;;;;;;;7.62;59.06;100440.09;5013942;28;20533;-49
2023/01/20 11:42:53;;;;;;;4.97;2.70;;;;;;;7.52;58.89;100446.81;5018153;28;20062;-54
2023/01/20 11:45:24;;;;;;;8.30;3.33;;;;;;;7.43;60.69;100443.25;5014051;28;20108;-54
2023/01/20 11:50:40;;;;;;;10.15;1.70;;;;;;;7.30;61.04;100451.63;5017359;27;20433;-57
2023/01/20 11:53:15;;;;;;;6.13;1.08;;;;;;;7.29;61.00;100455.91;5012419;28;20505;-54
2023/01/20 11:55:47;;;;;;;4.13;1.30;;;;;;;7.23;60.79;100449.78;5011821;28;20124;-52
2023/01/20 11:58:18;;;;;;;9.05;1.45;;;;;;;7.19;59.73;100448.84;5007253;28;20105;-56
2023/01/20 12:00:45;;;;;;;7.55;1.60;;;;;;;7.14;61.22;100448.78;5008728;28;20524;-51
2023/01/20 12:11:27;;;;;;;4.70;1.15;;;;;;;7.19;62.15;100462.59;5029023;27;20390;-52
2023/01/20 12:14:19;;;;;;;6.50;1.00;;;;;;;7.20;60.96;100466.91;4993835;28;20046;-50
2023/01/20 12:16:53;;;;;;;4.47;0.75;;;;;;;7.14;61.90;100461.66;4995635;28;20285;-54
2023/01/20 12:19:28;;;;;;;4.82;1.08;;;;;;;7.03;61.58;100452.88;4995554;28;20089;-53
2023/01/20 12:22:01;;;;;;;2.47;0.50;;;;;;;7.00;60.43;100452.81;4996826;28;20050;-52
2023/01/20 12:27:27;;;;;;;6.78;0.95;;;;;;;6.75;60.32;100467.81;4990673;28;20062;-53
2023/01/20 12:30:01;;;;;;;1.95;0.50;;;;;;;6.65;60.24;100454.72;4994920;28;20050;-55
2023/01/20 12:32:30;;;;;;;2.17;0.55;;;;;;;6.62;61.70;100459.81;5000593;28;20137;-53
2023/01/20 12:34:56;;;;;;;1.70;0.32;;;;;;;6.58;61.67;100449.44;4990250;28;20109;-53
2023/01/20 12:37:35;;;;;;;1.67;0.45;;;;;;;6.52;60.49;100456.19;4995956;28;20133;-52
2023/01/20 12:40:16;;;;;;;2.67;0.55;;;;;;;6.43;61.00;100456.84;4996296;28;20159;-55
2023/01/20 12:51:01;;;;;;;2.70;1.95;;;;;;;6.39;61.44;100464.50;5024342;28;21172;-53
2023/01/20 12:56:25;;;;;;;0.82;0.45;;;;;;;6.24;60.84;100462.44;5049099;27;20393;-51
2023/01/20 13:01:42;;;;;;;3.30;1.75;;;;;;;6.12;62.40;100461.34;5029283;28;20410;-49
2023/01/20 13:04:49;;;;;;;4.20;1.52;;;;;;;6.13;62.31;100457.94;5000416;28;20042;-51
2023/01/20 13:18:28;;;;;;;4.47;0.50;;;;;;;6.04;62.06;100462.88;5076364;27;20425;-55
2023/01/20 13:20:55;;;;;;;0.93;0.43;;;;;;;6.00;62.36;100461.03;5058777;28;20065;-50
2023/01/20 13:23:28;;;;;;;2.00;1.08;;;;;;;5.94;62.15;100461.75;5077160;28;20074;-49
2023/01/20 13:25:57;;;;;;;2.30;0.50;;;;;;;5.98;62.05;100467.88;5060166;28;20102;-53
2023/01/20 13:28:26;;;;;;;1.30;0.70;;;;;;;5.90;62.67;100477.97;5057661;28;20045;-52
2023/01/20 13:30:56;;;;;;;2.22;0.57;;;;;;;5.91;63.26;100478.00;5062523;27;20099;-53
2023/01/20 13:36:19;;;;;;;2.65;0.55;;;;;;;5.82;62.71;100493.22;5081060;27;20402;-55
2023/01/20 13:38:49;;;;;;;0.93;0.45;;;;;;;5.82;63.56;100489.75;5094173;28;20068;-47
2023/01/20 13:41:35;;;;;;;;;;;;;;;5.75;63.01;100491.31;5074594;28;21099;-52
2023/01/20 13:44:38;;;;;;;1.63;1.52;;;;;;;5.74;62.86;100493.00;5076995;28;19955;-53
2023/01/20 13:47:09;;;;;;;2.60;0.95;;;;;;;5.75;62.73;100488.75;5067246;28;20044;-55
2023/01/20 13:49:48;;;;;;;2.67;0.65;;;;;;;5.71;63.45;100489.50;5077081;28;20094;-51
2023/01/20 13:52:48;;;;;;;0.95;0.57;;;;;;;5.66;63.37;100503.13;5075735;28;20494;-52
2023/01/20 14:01:06;;;;;;;1.13;1.05;;;;;;;5.63;63.49;100508.19;5030916;28;20404;-52
2023/01/20 14:08:49;;;;;;;1.75;1.55;;;;;;;5.65;64.07;100516.78;5057722;28;20772;-49
2023/01/20 14:11:21;;;;;;;5.32;2.15;;;;;;;5.63;63.38;100520.16;5027920;28;20049;-51
2023/01/20 14:21:52;;;;;;;4.13;0.47;;;;;;;5.61;63.22;100543.25;5036084;28;21068;-49